Time;durP1;ratioP1;P1;durP2;ratioP2;P2;SDS_P1;SDS_P2;PMS_P1;PMS_P2;Temp;Humidity;BMP_temperature;BMP_pressure;BME280_temperature;BME280_humidity;BME280_pressure;Samples;Min_cycle;Max_cycle;Signal;HPM_P1;HPM_P2
2022/10/07 00:00:03;;;;;;;4.95;1.90;;;;;;;;;;3376493;42;20079;-64
2022/10/07 00:02:34;;;;;;;5.37;1.80;;;;;;;;;;3382378;42;20107;-63
2022/10/07 00:05:06;;;;;;;6.03;2.00;;;;;;;;;;3383937;42;20083;-63
2022/10/07 00:07:37;;;;;;;5.78;1.70;;;;;;;;;;3369743;42;20557;-63
2022/10/07 00:10:08;;;;;;;4.82;1.60;;;;;;;;;;3383933;42;20105;-64
2022/10/07 00:12:39;;;;;;;6.90;2.00;;;;;;;;;;3383728;42;20525;-64
2022/10/07 00:15:11;;;;;;;5.97;1.90;;;;;;;;;;3381527;42;20134;-62
2022/10/07 00:17:43;;;;;;;5.13;1.90;;;;;;;;;;3384525;42;20090;-63
2022/10/07 00:20:14;;;;;;;5.82;2.00;;;;;;;;;;3383980;42;20150;-62
2022/10/07 00:22:45;;;;;;;7.30;2.05;;;;;;;;;;3383744;42;20093;-62
2022/10/07 00:25:16;;;;;;;6.95;1.80;;;;;;;;;;3383652;42;20090;-63
2022/10/07 00:27:49;;;;;;;4.90;1.67;;;;;;;;;;3381710;42;20113;-64
2022/10/07 00:30:20;;;;;;;5.13;1.80;;;;;;;;;;3383363;42;20484;-62
2022/10/07 00:32:51;;;;;;;5.10;2.00;;;;;;;;;;3375704;42;20111;-63
2022/10/07 00:35:22;;;;;;;6.28;1.77;;;;;;;;;;3383380;42;20522;-63
2022/10/07 00:37:53;;;;;;;4.75;1.70;;;;;;;;;;3383646;42;20553;-65
2022/10/07 00:40:25;;;;;;;4.77;1.70;;;;;;;;;;3376692;42;20610;-63
2022/10/07 00:42:56;;;;;;;5.93;1.80;;;;;;;;;;3384348;42;20130;-64
2022/10/07 00:45:28;;;;;;;4.63;1.60;;;;;;;;;;3382386;42;20156;-63
2022/10/07 00:47:59;;;;;;;6.60;1.60;;;;;;;;;;3377564;42;20082;-65
2022/10/07 00:50:31;;;;;;;5.60;1.77;;;;;;;;;;3383219;42;20301;-64
2022/10/07 00:53:02;;;;;;;5.23;2.00;;;;;;;;;;3376312;42;20086;-64
2022/10/07 00:55:34;;;;;;;7.82;2.08;;;;;;;;;;3373711;42;20168;-64
2022/10/07 00:58:08;;;;;;;5.45;1.90;;;;;;;;;;3383083;42;20137;-62
2022/10/07 01:00:39;;;;;;;6.38;1.75;;;;;;;;;;3376458;42;20146;-62
2022/10/07 01:03:10;;;;;;;6.15;1.80;;;;;;;;;;3384930;42;20091;-61
2022/10/07 01:05:42;;;;;;;6.00;1.83;;;;;;;;;;3384600;42;20091;-63
2022/10/07 01:08:14;;;;;;;5.30;2.08;;;;;;;;;;3384420;42;20158;-62
2022/10/07 01:10:59;;;;;;;5.60;2.00;;;;;;;;;;3384078;42;20099;-63
2022/10/07 01:13:38;;;;;;;5.32;1.88;;;;;;;;;;3375657;42;20168;-63
2022/10/07 01:16:22;;;;;;;4.90;1.92;;;;;;;;;;3373854;42;20223;-63
2022/10/07 01:18:58;;;;;;;5.90;1.90;;;;;;;;;;3374849;42;20090;-65
2022/10/07 01:21:59;;;;;;;5.30;1.73;;;;;;;;;;3376582;42;20164;-62
2022/10/07 01:25:03;;;;;;;4.63;1.60;;;;;;;;;;3375590;42;20086;-63
2022/10/07 01:27:34;;;;;;;5.20;1.50;;;;;;;;;;3373568;42;20099;-62
2022/10/07 01:30:06;;;;;;;5.53;2.10;;;;;;;;;;3384819;42;20155;-65
2022/10/07 01:32:55;;;;;;;4.90;1.87;;;;;;;;;;3375751;42;20095;-65
2022/10/07 01:35:30;;;;;;;5.50;1.77;;;;;;;;;;3372146;42;20107;-64
2022/10/07 01:38:04;;;;;;;5.88;1.90;;;;;;;;;;3375454;42;20096;-63
2022/10/07 01:40:41;;;;;;;5.30;1.80;;;;;;;;;;3373970;42;20200;-64
2022/10/07 01:43:13;;;;;;;5.00;1.90;;;;;;;;;;3375587;42;20091;-63
2022/10/07 01:45:44;;;;;;;5.43;1.67;;;;;;;;;;3375198;42;20094;-65
2022/10/07 01:48:15;;;;;;;5.13;2.00;;;;;;;;;;3375840;42;20146;-63
2022/10/07 01:50:47;;;;;;;5.57;2.03;;;;;;;;;;3379150;42;20137;-64
2022/10/07 01:53:33;;;;;;;6.38;2.00;;;;;;;;;;3375757;42;20646;-64
2022/10/07 01:56:41;;;;;;;6.07;1.90;;;;;;;;;;3383018;42;20604;-62
2022/10/07 01:59:21;;;;;;;5.17;1.90;;;;;;;;;;3375647;42;20133;-63
2022/10/07 02:01:52;;;;;;;6.80;2.33;;;;;;;;;;3384271;42;20104;-63
2022/10/07 02:04:56;;;;;;;5.50;1.98;;;;;;;;;;3384008;42;20098;-64
2022/10/07 02:07:38;;;;;;;5.32;1.80;;;;;;;;;;3362637;42;20098;-64
2022/10/07 02:10:19;;;;;;;4.72;1.90;;;;;;;;;;3376542;42;20106;-61
2022/10/07 02:12:54;;;;;;;5.77;1.90;;;;;;;;;;3375273;42;20132;-64
2022/10/07 02:15:29;;;;;;;7.75;2.10;;;;;;;;;;3382570;42;20121;-65
2022/10/07 02:18:02;;;;;;;5.18;1.90;;;;;;;;;;3375151;42;20098;-66
2022/10/07 02:20:35;;;;;;;7.28;1.90;;;;;;;;;;3375375;42;20086;-64
2022/10/07 02:23:06;;;;;;;5.40;1.95;;;;;;;;;;3376563;42;20165;-64
2022/10/07 02:25:41;;;;;;;6.87;2.20;;;;;;;;;;3383781;42;20556;-65
2022/10/07 02:28:13;;;;;;;6.03;2.22;;;;;;;;;;3376012;42;20095;-63
2022/10/07 02:30:45;;;;;;;7.13;2.10;;;;;;;;;;3384255;42;20147;-64
2022/10/07 02:33:16;;;;;;;5.05;1.90;;;;;;;;;;3377081;42;20094;-64
2022/10/07 02:35:53;;;;;;;6.18;1.92;;;;;;;;;;3378492;42;20162;-63
2022/10/07 02:38:25;;;;;;;5.20;2.10;;;;;;;;;;3377343;42;20098;-63
2022/10/07 02:41:30;;;;;;;4.63;1.73;;;;;;;;;;3375790;42;20098;-62
2022/10/07 02:44:16;;;;;;;5.25;1.85;;;;;;;;;;3372825;42;20613;-64
2022/10/07 02:47:18;;;;;;;5.40;1.70;;;;;;;;;;3376771;42;20095;-64
2022/10/07 02:49:52;;;;;;;5.05;1.92;;;;;;;;;;3368796;42;20097;-63
2022/10/07 02:52:23;;;;;;;4.80;1.70;;;;;;;;;;3377287;42;20101;-64
2022/10/07 02:54:59;;;;;;;5.60;2.05;;;;;;;;;;3377195;42;20569;-64
2022/10/07 02:57:32;;;;;;;6.82;1.90;;;;;;;;;;3374429;42;20110;-63
2022/10/07 03:00:04;;;;;;;5.97;1.80;;;;;;;;;;3377139;42;20135;-63
2022/10/07 03:02:43;;;;;;;7.70;2.20;;;;;;;;;;3366406;42;20078;-62
2022/10/07 03:05:19;;;;;;;4.77;1.90;;;;;;;;;;3377188;42;20087;-63
2022/10/07 03:07:53;;;;;;;6.00;2.10;;;;;;;;;;3370695;42;20848;-64
2022/10/07 03:10:25;;;;;;;6.30;1.95;;;;;;;;;;3377385;42;20090;-66
2022/10/07 03:12:56;;;;;;;5.50;1.70;;;;;;;;;;3383610;42;20163;-61
2022/10/07 03:15:28;;;;;;;4.65;1.60;;;;;;;;;;3372151;42;20554;-63
2022/10/07 03:17:59;;;;;;;8.73;2.23;;;;;;;;;;3383701;42;20187;-62
2022/10/07 03:20:31;;;;;;;5.45;1.60;;;;;;;;;;3381606;42;20122;-63
2022/10/07 03:23:02;;;;;;;5.57;1.77;;;;;;;;;;3383959;42;20164;-63
2022/10/07 03:25:34;;;;;;;7.85;1.88;;;;;;;;;;3383626;42;20095;-65
2022/10/07 03:28:05;;;;;;;9.82;2.05;;;;;;;;;;3383343;42;20102;-64
2022/10/07 03:30:36;;;;;;;5.43;1.80;;;;;;;;;;3383477;42;20583;-64
2022/10/07 03:33:08;;;;;;;5.45;1.75;;;;;;;;;;3383292;42;20687;-64
2022/10/07 03:35:39;;;;;;;6.85;2.40;;;;;;;;;;3383440;42;20099;-65
2022/10/07 03:38:10;;;;;;;5.10;1.90;;;;;;;;;;3382356;42;20094;-69
2022/10/07 03:40:42;;;;;;;6.07;1.67;;;;;;;;;;3381592;42;20242;-61
2022/10/07 03:43:14;;;;;;;5.47;2.00;;;;;;;;;;3376020;42;20098;-61
2022/10/07 03:45:48;;;;;;;5.13;1.77;;;;;;;;;;3382780;42;20094;-62
2022/10/07 03:48:19;;;;;;;13.85;2.33;;;;;;;;;;3376113;42;20099;-63
2022/10/07 03:50:51;;;;;;;7.65;1.70;;;;;;;;;;3382938;42;20550;-61
2022/10/07 03:53:23;;;;;;;7.30;1.90;;;;;;;;;;3382333;42;20103;-63
2022/10/07 03:55:54;;;;;;;5.50;2.13;;;;;;;;;;3379835;42;20160;-63
2022/10/07 03:58:26;;;;;;;6.68;2.20;;;;;;;;;;3382105;42;20105;-60
2022/10/07 04:01:08;;;;;;;5.65;2.10;;;;;;;;;;3381695;42;20122;-63
2022/10/07 04:03:39;;;;;;;5.35;2.20;;;;;;;;;;3380541;42;20579;-64
2022/10/07 04:06:10;;;;;;;6.32;2.10;;;;;;;;;;3376553;42;20553;-63
2022/10/07 04:08:43;;;;;;;6.63;2.17;;;;;;;;;;3381870;42;20103;-65
2022/10/07 04:11:14;;;;;;;5.20;2.10;;;;;;;;;;3386319;42;20090;-64
2022/10/07 04:13:46;;;;;;;6.22;2.20;;;;;;;;;;3381923;42;20091;-64
2022/10/07 04:16:18;;;;;;;6.97;2.40;;;;;;;;;;3381516;42;20087;-63
2022/10/07 04:18:53;;;;;;;5.60;2.10;;;;;;;;;;3375956;42;20108;-64
2022/10/07 04:21:24;;;;;;;5.70;2.20;;;;;;;;;;3383575;42;20269;-63
2022/10/07 04:23:55;;;;;;;6.68;2.00;;;;;;;;;;3383018;42;20146;-64
2022/10/07 04:26:27;;;;;;;5.63;1.98;;;;;;;;;;3382992;42;20681;-67
2022/10/07 04:28:58;;;;;;;5.93;2.22;;;;;;;;;;3383196;42;20095;-64
2022/10/07 04:31:30;;;;;;;6.60;2.30;;;;;;;;;;3375790;42;20951;-65
2022/10/07 04:34:01;;;;;;;6.20;2.20;;;;;;;;;;3390026;42;20604;-63
2022/10/07 04:36:32;;;;;;;6.75;2.10;;;;;;;;;;3383143;42;20091;-64
2022/10/07 04:39:04;;;;;;;6.35;2.30;;;;;;;;;;3382977;42;20093;-63
2022/10/07 04:41:35;;;;;;;5.55;2.40;;;;;;;;;;3382906;42;20098;-63
2022/10/07 04:44:06;;;;;;;6.28;2.45;;;;;;;;;;3383251;42;20105;-63
2022/10/07 04:46:38;;;;;;;5.93;2.00;;;;;;;;;;3379911;42;20169;-64
2022/10/07 04:49:10;;;;;;;5.80;2.28;;;;;;;;;;3382184;42;20095;-64
2022/10/07 04:51:41;;;;;;;6.32;2.40;;;;;;;;;;3382487;42;20099;-66
2022/10/07 04:54:12;;;;;;;6.22;2.45;;;;;;;;;;3380860;42;20135;-65
2022/10/07 04:56:45;;;;;;;6.75;2.10;;;;;;;;;;3380992;42;20116;-65
2022/10/07 04:59:18;;;;;;;7.27;2.17;;;;;;;;;;3368421;42;20497;-64
2022/10/07 05:01:49;;;;;;;7.72;2.47;;;;;;;;;;3382257;42;20087;-65
2022/10/07 05:04:20;;;;;;;5.75;2.10;;;;;;;;;;3382713;42;20520;-65
2022/10/07 05:06:51;;;;;;;7.65;2.30;;;;;;;;;;3382765;42;20684;-64
2022/10/07 05:09:22;;;;;;;5.60;2.17;;;;;;;;;;3383263;42;20097;-65
2022/10/07 05:11:56;;;;;;;9.53;2.20;;;;;;;;;;3379707;42;20107;-64
2022/10/07 05:14:27;;;;;;;6.97;2.17;;;;;;;;;;3383534;42;20107;-64
2022/10/07 05:16:58;;;;;;;7.93;2.55;;;;;;;;;;3371042;42;20557;-64
2022/10/07 05:19:29;;;;;;;5.63;1.90;;;;;;;;;;3382936;42;20095;-65
2022/10/07 05:22:01;;;;;;;4.93;1.80;;;;;;;;;;3383543;42;20086;-65
2022/10/07 05:24:33;;;;;;;6.10;2.10;;;;;;;;;;3382935;42;20948;-64
2022/10/07 05:27:04;;;;;;;5.10;2.00;;;;;;;;;;3382709;42;20106;-65
2022/10/07 05:29:35;;;;;;;6.25;2.10;;;;;;;;;;3382135;42;20102;-65
2022/10/07 05:32:06;;;;;;;4.85;1.60;;;;;;;;;;3389890;42;20168;-65
2022/10/07 05:34:37;;;;;;;9.80;2.35;;;;;;;;;;3382321;42;20091;-63
2022/10/07 05:37:09;;;;;;;9.73;2.40;;;;;;;;;;3378932;42;20099;-64
2022/10/07 05:39:40;;;;;;;8.50;2.10;;;;;;;;;;3382725;42;20091;-65
2022/10/07 05:42:12;;;;;;;6.40;1.95;;;;;;;;;;3383023;42;20091;-63
2022/10/07 05:44:43;;;;;;;7.07;2.50;;;;;;;;;;3382763;42;20150;-65
2022/10/07 05:47:14;;;;;;;6.55;2.03;;;;;;;;;;3382677;42;20099;-63
2022/10/07 05:49:45;;;;;;;5.17;2.00;;;;;;;;;;3379945;42;20108;-63
2022/10/07 05:52:18;;;;;;;6.50;1.80;;;;;;;;;;3383093;42;20138;-64
2022/10/07 05:54:49;;;;;;;5.82;2.00;;;;;;;;;;3381366;42;20544;-67
2022/10/07 05:57:21;;;;;;;7.65;2.17;;;;;;;;;;3383153;42;20126;-65
2022/10/07 05:59:55;;;;;;;5.20;1.77;;;;;;;;;;3384442;42;20110;-62
2022/10/07 06:02:26;;;;;;;5.00;1.80;;;;;;;;;;3383234;42;20086;-64
2022/10/07 06:04:57;;;;;;;4.88;1.85;;;;;;;;;;3384393;42;20168;-65
2022/10/07 06:07:28;;;;;;;5.40;2.22;;;;;;;;;;3384633;42;20090;-64
2022/10/07 06:13:07;;;;;;;5.47;2.03;;;;;;;;;;3384175;42;20555;-69
2022/10/07 06:15:38;;;;;;;5.40;2.17;;;;;;;;;;3384094;42;20105;-66
2022/10/07 06:18:09;;;;;;;11.43;2.30;;;;;;;;;;3384360;42;20110;-66
2022/10/07 06:20:41;;;;;;;5.88;2.28;;;;;;;;;;3384373;42;20099;-65
2022/10/07 06:23:12;;;;;;;5.53;2.40;;;;;;;;;;3383908;42;20091;-67
2022/10/07 06:25:45;;;;;;;5.30;1.83;;;;;;;;;;3384076;42;20188;-66
2022/10/07 06:28:16;;;;;;;6.37;2.00;;;;;;;;;;3376944;42;20094;-67
2022/10/07 06:30:47;;;;;;;6.85;2.05;;;;;;;;;;3382265;42;20136;-66
2022/10/07 06:33:18;;;;;;;5.28;2.38;;;;;;;;;;3374719;42;20603;-65
2022/10/07 06:35:49;;;;;;;5.20;1.90;;;;;;;;;;3391080;42;20113;-66
2022/10/07 06:38:21;;;;;;;6.40;1.80;;;;;;;;;;3369709;42;20090;-66
2022/10/07 06:40:59;;;;;;;6.20;1.83;;;;;;;;;;3383670;42;20101;-65
2022/10/07 06:43:33;;;;;;;6.68;1.88;;;;;;;;;;3384046;42;20091;-64
2022/10/07 06:46:05;;;;;;;8.63;1.80;;;;;;;;;;3383417;42;20171;-66
2022/10/07 06:48:36;;;;;;;4.50;1.70;;;;;;;;;;3383335;42;20172;-68
2022/10/07 06:51:08;;;;;;;5.10;1.60;;;;;;;;;;3369581;42;20079;-64
2022/10/07 06:53:39;;;;;;;4.70;1.50;;;;;;;;;;3376779;42;20561;-64
2022/10/07 06:56:12;;;;;;;4.57;1.70;;;;;;;;;;3383619;42;20091;-64
2022/10/07 06:58:43;;;;;;;4.85;1.60;;;;;;;;;;3376670;42;20106;-67
2022/10/07 07:01:15;;;;;;;6.15;1.75;;;;;;;;;;3383707;42;20103;-64
2022/10/07 07:03:46;;;;;;;4.88;1.70;;;;;;;;;;3383300;42;20103;-63
2022/10/07 07:06:17;;;;;;;4.57;1.70;;;;;;;;;;3383729;42;20095;-66
2022/10/07 07:08:49;;;;;;;10.93;2.20;;;;;;;;;;3383061;42;20138;-64
2022/10/07 07:11:35;;;;;;;5.18;1.80;;;;;;;;;;3383517;42;20569;-66
2022/10/07 07:14:07;;;;;;;6.20;1.80;;;;;;;;;;3382138;42;20151;-65
2022/10/07 07:16:39;;;;;;;7.30;1.90;;;;;;;;;;3388508;42;20098;-63
2022/10/07 07:19:11;;;;;;;7.63;2.00;;;;;;;;;;3376995;42;20517;-65
2022/10/07 07:21:42;;;;;;;5.75;2.03;;;;;;;;;;3382484;42;20079;-65
2022/10/07 07:24:14;;;;;;;5.57;2.03;;;;;;;;;;3383761;42;20091;-65
2022/10/07 07:26:45;;;;;;;5.15;1.77;;;;;;;;;;3383485;42;20569;-67
2022/10/07 07:29:16;;;;;;;6.50;1.92;;;;;;;;;;3383577;42;20094;-66
2022/10/07 07:31:49;;;;;;;5.20;1.83;;;;;;;;;;3383257;42;20105;-66
2022/10/07 07:34:21;;;;;;;5.22;1.90;;;;;;;;;;3383360;42;20091;-65
2022/10/07 07:36:52;;;;;;;5.30;2.17;;;;;;;;;;3383305;42;20091;-67
2022/10/07 07:39:23;;;;;;;5.43;1.73;;;;;;;;;;3383286;42;20160;-65
2022/10/07 07:41:54;;;;;;;5.30;1.88;;;;;;;;;;3383274;42;20263;-67
2022/10/07 07:44:26;;;;;;;4.80;1.80;;;;;;;;;;3383250;42;20653;-66
2022/10/07 07:46:58;;;;;;;5.18;1.73;;;;;;;;;;3382588;42;20167;-65
2022/10/07 07:49:31;;;;;;;5.00;1.80;;;;;;;;;;3382775;42;20097;-64
2022/10/07 07:52:03;;;;;;;8.20;2.10;;;;;;;;;;3382703;42;20094;-64
2022/10/07 07:54:36;;;;;;;5.40;1.63;;;;;;;;;;3383408;42;20101;-65
2022/10/07 07:57:07;;;;;;;5.70;1.73;;;;;;;;;;3382822;42;20515;-66
2022/10/07 07:59:39;;;;;;;6.68;1.80;;;;;;;;;;3382995;42;20103;-68
2022/10/07 08:02:11;;;;;;;4.90;1.70;;;;;;;;;;3383316;42;20101;-68
2022/10/07 08:04:42;;;;;;;5.60;1.90;;;;;;;;;;3375872;42;20094;-67
2022/10/07 08:07:13;;;;;;;4.90;1.73;;;;;;;;;;3390425;42;20095;-65
2022/10/07 08:09:44;;;;;;;6.50;2.07;;;;;;;;;;3380877;42;20176;-64
2022/10/07 08:12:15;;;;;;;7.30;1.83;;;;;;;;;;3380205;42;21346;-67
2022/10/07 08:14:47;;;;;;;6.13;2.00;;;;;;;;;;3388061;42;20192;-65
2022/10/07 08:17:18;;;;;;;6.93;2.08;;;;;;;;;;3376066;42;20098;-66
2022/10/07 08:19:49;;;;;;;5.82;2.00;;;;;;;;;;3382691;42;20109;-64
2022/10/07 08:22:20;;;;;;;5.17;1.90;;;;;;;;;;3382861;42;20096;-64
2022/10/07 08:24:51;;;;;;;8.45;2.00;;;;;;;;;;3380039;42;20627;-65
2022/10/07 08:27:23;;;;;;;7.05;2.72;;;;;;;;;;3375396;42;20512;-65
2022/10/07 08:29:54;;;;;;;5.00;1.90;;;;;;;;;;3382715;42;20190;-64
2022/10/07 08:32:25;;;;;;;7.20;2.00;;;;;;;;;;3382613;42;20164;-62
2022/10/07 08:34:56;;;;;;;5.33;1.80;;;;;;;;;;3379683;42;20155;-65
2022/10/07 08:37:27;;;;;;;6.40;2.17;;;;;;;;;;3380788;42;20821;-64
2022/10/07 08:39:58;;;;;;;5.22;2.00;;;;;;;;;;3382554;42;20091;-64
2022/10/07 08:42:34;;;;;;;6.03;1.98;;;;;;;;;;3382806;42;20145;-64
2022/10/07 08:45:09;;;;;;;7.15;2.00;;;;;;;;;;3375909;42;20564;-66
2022/10/07 08:47:43;;;;;;;9.83;3.50;;;;;;;;;;3382990;42;20550;-65
2022/10/07 08:50:24;;;;;;;6.47;2.28;;;;;;;;;;3376425;42;20105;-66
2022/10/07 08:53:03;;;;;;;6.38;2.20;;;;;;;;;;3375426;42;20105;-65
2022/10/07 08:55:55;;;;;;;5.07;2.00;;;;;;;;;;3382477;42;20142;-63
2022/10/07 08:59:04;;;;;;;5.50;2.30;;;;;;;;;;3381286;42;20218;-65
2022/10/07 09:01:54;;;;;;;5.13;1.87;;;;;;;;;;3369051;42;20087;-64
2022/10/07 09:04:44;;;;;;;5.90;2.60;;;;;;;;;;3374681;42;20442;-64
2022/10/07 09:07:31;;;;;;;5.80;2.30;;;;;;;;;;3382848;42;20196;-65
2022/10/07 09:10:14;;;;;;;6.10;2.20;;;;;;;;;;3373198;42;20091;-66
2022/10/07 09:12:53;;;;;;;6.50;2.60;;;;;;;;;;3376220;42;20648;-61
2022/10/07 09:15:51;;;;;;;6.00;2.43;;;;;;;;;;3375379;42;20091;-66
2022/10/07 09:18:32;;;;;;;8.82;2.60;;;;;;;;;;3375136;42;20838;-66
2022/10/07 09:21:20;;;;;;;6.32;2.40;;;;;;;;;;3381116;42;20567;-64
2022/10/07 09:23:55;;;;;;;6.75;2.53;;;;;;;;;;3375986;42;20216;-63
2022/10/07 09:26:26;;;;;;;6.60;2.55;;;;;;;;;;3382940;42;20133;-64
2022/10/07 09:28:58;;;;;;;7.80;2.97;;;;;;;;;;3375039;42;20113;-64
2022/10/07 09:31:31;;;;;;;7.07;2.40;;;;;;;;;;3375101;42;20094;-66
2022/10/07 09:34:02;;;;;;;8.05;3.00;;;;;;;;;;3380566;42;20492;-64
2022/10/07 09:36:34;;;;;;;6.38;2.42;;;;;;;;;;3374198;42;20146;-63
2022/10/07 09:39:19;;;;;;;6.22;2.80;;;;;;;;;;3373323;42;20094;-62
2022/10/07 09:41:51;;;;;;;9.07;2.53;;;;;;;;;;3373083;42;20117;-62
2022/10/07 09:44:25;;;;;;;7.93;2.70;;;;;;;;;;3373375;42;20570;-66
2022/10/07 09:46:58;;;;;;;8.02;3.13;;;;;;;;;;3375479;42;20153;-64
2022/10/07 09:49:34;;;;;;;6.40;2.80;;;;;;;;;;3375690;42;20110;-62
2022/10/07 09:52:22;;;;;;;7.20;3.03;;;;;;;;;;3369495;42;20581;-64
2022/10/07 09:54:54;;;;;;;7.53;3.13;;;;;;;;;;3375105;42;20136;-63
2022/10/07 09:57:32;;;;;;;8.80;2.85;;;;;;;;;;3382363;42;20097;-65
2022/10/07 10:00:40;;;;;;;8.20;2.70;;;;;;;;;;3382200;42;20095;-63
2022/10/07 10:03:12;;;;;;;7.65;3.03;;;;;;;;;;3355920;42;20154;-62
2022/10/07 10:05:57;;;;;;;7.70;2.95;;;;;;;;;;3372212;42;20560;-68
2022/10/07 10:08:41;;;;;;;7.23;2.80;;;;;;;;;;3372378;42;20600;-65
2022/10/07 10:11:30;;;;;;;8.13;3.17;;;;;;;;;;3373359;42;20611;-66
2022/10/07 10:14:23;;;;;;;7.60;2.80;;;;;;;;;;3381806;42;20103;-65
2022/10/07 10:16:55;;;;;;;9.73;3.38;;;;;;;;;;3381523;42;20091;-62
2022/10/07 10:19:26;;;;;;;8.73;3.20;;;;;;;;;;3375385;42;20098;-65
2022/10/07 10:21:58;;;;;;;9.07;3.27;;;;;;;;;;3381962;42;20115;-64
2022/10/07 10:27:26;;;;;;;9.77;3.05;;;;;;;;;;3369741;42;20092;-63
2022/10/07 10:30:04;;;;;;;8.50;3.53;;;;;;;;;;3381835;42;20576;-65
2022/10/07 10:33:00;;;;;;;10.23;3.47;;;;;;;;;;3377083;42;20537;-63
2022/10/07 10:35:36;;;;;;;7.80;3.20;;;;;;;;;;3365151;42;20166;-65
2022/10/07 10:38:24;;;;;;;8.07;3.90;;;;;;;;;;3374493;42;20176;-63
2022/10/07 10:40:58;;;;;;;11.13;3.40;;;;;;;;;;3374993;42;20102;-65
2022/10/07 10:43:38;;;;;;;9.65;3.72;;;;;;;;;;3375329;42;20099;-65
2022/10/07 10:46:14;;;;;;;10.18;3.72;;;;;;;;;;3383399;42;20094;-65
2022/10/07 10:49:26;;;;;;;9.47;3.70;;;;;;;;;;3376328;42;20113;-64
2022/10/07 10:52:14;;;;;;;9.05;3.90;;;;;;;;;;3371533;42;20628;-63
2022/10/07 10:55:07;;;;;;;10.43;3.90;;;;;;;;;;3377024;42;20099;-65
2022/10/07 10:57:56;;;;;;;9.48;3.92;;;;;;;;;;3377796;42;20087;-64
2022/10/07 11:01:12;;;;;;;10.38;4.18;;;;;;;;;;3375401;42;20097;-63
2022/10/07 11:03:47;;;;;;;11.37;4.40;;;;;;;;;;3361369;42;20088;-64
2022/10/07 11:06:18;;;;;;;9.93;4.20;;;;;;;;;;3381848;42;20184;-64
2022/10/07 11:08:51;;;;;;;10.27;4.30;;;;;;;;;;3383274;42;20097;-66
2022/10/07 11:11:22;;;;;;;9.23;4.32;;;;;;;;;;3376244;42;20087;-65
2022/10/07 11:13:59;;;;;;;13.50;4.43;;;;;;;;;;3375515;42;20143;-66
2022/10/07 11:16:47;;;;;;;8.97;3.77;;;;;;;;;;3376608;42;20079;-68
2022/10/07 11:19:43;;;;;;;10.65;4.38;;;;;;;;;;3373610;42;20079;-64
2022/10/07 11:22:16;;;;;;;9.73;4.20;;;;;;;;;;3379345;42;20675;-66
2022/10/07 11:24:53;;;;;;;10.48;4.55;;;;;;;;;;3375058;42;20091;-63
2022/10/07 11:27:29;;;;;;;9.75;4.35;;;;;;;;;;3371160;42;20099;-63
2022/10/07 11:30:16;;;;;;;9.47;4.00;;;;;;;;;;3382688;42;20160;-64
2022/10/07 11:33:31;;;;;;;10.48;4.40;;;;;;;;;;3382637;42;20087;-64
2022/10/07 11:36:12;;;;;;;10.93;4.20;;;;;;;;;;3363702;42;20108;-66
2022/10/07 11:38:44;;;;;;;10.60;4.47;;;;;;;;;;3383359;42;20175;-66
2022/10/07 11:41:24;;;;;;;9.50;4.57;;;;;;;;;;3375621;42;20563;-64
2022/10/07 11:43:58;;;;;;;10.83;5.07;;;;;;;;;;3379815;42;20507;-63
2022/10/07 11:46:33;;;;;;;11.93;4.45;;;;;;;;;;3374252;42;20143;-63
2022/10/07 11:49:10;;;;;;;10.48;4.75;;;;;;;;;;3375991;42;20864;-65
2022/10/07 11:51:59;;;;;;;10.95;4.53;;;;;;;;;;3382970;42;20159;-64
2022/10/07 11:55:04;;;;;;;9.50;4.40;;;;;;;;;;3375922;42;20111;-65
2022/10/07 11:57:37;;;;;;;10.80;4.40;;;;;;;;;;3384005;42;20097;-67
2022/10/07 12:00:33;;;;;;;10.18;4.38;;;;;;;;;;3375745;42;20106;-63
2022/10/07 12:03:16;;;;;;;10.50;5.20;;;;;;;;;;3387699;42;20109;-64
2022/10/07 12:05:52;;;;;;;10.73;4.88;;;;;;;;;;3382290;42;20105;-64
2022/10/07 12:08:30;;;;;;;12.60;5.05;;;;;;;;;;3384296;42;20086;-64
2022/10/07 12:11:11;;;;;;;11.80;4.70;;;;;;;;;;3381446;42;20592;-62
2022/10/07 12:13:47;;;;;;;12.68;4.82;;;;;;;;;;3385107;42;20257;-64
2022/10/07 12:16:30;;;;;;;11.27;4.82;;;;;;;;;;3381412;42;20114;-64
2022/10/07 12:19:07;;;;;;;10.18;4.40;;;;;;;;;;3382122;42;20113;-62
2022/10/07 12:22:03;;;;;;;9.55;4.88;;;;;;;;;;3384814;42;20580;-65
2022/10/07 12:24:35;;;;;;;10.20;4.40;;;;;;;;;;3382929;42;20090;-63
2022/10/07 12:27:09;;;;;;;11.43;4.70;;;;;;;;;;3375229;42;20095;-66
2022/10/07 12:30:22;;;;;;;10.23;4.55;;;;;;;;;;3376956;42;20545;-61
2022/10/07 12:32:59;;;;;;;10.18;4.70;;;;;;;;;;3381353;42;20099;-64
2022/10/07 12:35:33;;;;;;;11.00;4.70;;;;;;;;;;3375881;42;20168;-62
2022/10/07 12:38:15;;;;;;;12.40;4.97;;;;;;;;;;3377460;42;20235;-65
2022/10/07 12:40:52;;;;;;;11.95;4.72;;;;;;;;;;3380164;42;20095;-62
2022/10/07 12:44:12;;;;;;;11.52;4.57;;;;;;;;;;3375061;42;20095;-61
2022/10/07 12:46:49;;;;;;;11.27;4.78;;;;;;;;;;3372788;42;20558;-62
2022/10/07 12:49:47;;;;;;;11.43;5.10;;;;;;;;;;3381792;42;20827;-63
2022/10/07 12:52:46;;;;;;;10.10;4.93;;;;;;;;;;3380523;42;20095;-63
2022/10/07 12:55:29;;;;;;;10.05;4.93;;;;;;;;;;3379589;42;20103;-64
2022/10/07 13:01:03;;;;;;;12.02;5.10;;;;;;;;;;3372280;42;20157;-61
2022/10/07 13:04:07;;;;;;;14.75;5.78;;;;;;;;;;3372750;42;20091;-64
2022/10/07 13:06:47;;;;;;;11.57;5.70;;;;;;;;;;3380383;42;20550;-63
2022/10/07 13:09:40;;;;;;;12.48;6.13;;;;;;;;;;3378728;42;20554;-62
2022/10/07 13:12:20;;;;;;;13.40;5.70;;;;;;;;;;3380916;42;20569;-64
2022/10/07 13:15:20;;;;;;;12.85;5.90;;;;;;;;;;3380398;42;20094;-64
2022/10/07 13:18:01;;;;;;;14.77;5.70;;;;;;;;;;3374469;42;20150;-68
2022/10/07 13:20:50;;;;;;;13.67;5.63;;;;;;;;;;3383304;42;20094;-65
2022/10/07 13:23:21;;;;;;;12.98;5.70;;;;;;;;;;3378740;42;20104;-65
2022/10/07 13:25:54;;;;;;;12.98;5.90;;;;;;;;;;3375212;42;20095;-64
2022/10/07 13:28:52;;;;;;;13.15;5.55;;;;;;;;;;3382524;42;20113;-66
2022/10/07 13:31:25;;;;;;;11.27;5.45;;;;;;;;;;3379265;42;20151;-62
2022/10/07 13:33:57;;;;;;;11.83;5.97;;;;;;;;;;3385610;42;20102;-67
2022/10/07 13:36:31;;;;;;;14.10;6.53;;;;;;;;;;3370810;42;20094;-65
2022/10/07 13:39:10;;;;;;;12.93;5.80;;;;;;;;;;3377661;42;20601;-67
2022/10/07 13:41:42;;;;;;;14.77;6.00;;;;;;;;;;3380547;42;20099;-65
2022/10/07 13:44:14;;;;;;;13.27;5.47;;;;;;;;;;3369895;42;20099;-65
2022/10/07 13:47:02;;;;;;;13.67;6.20;;;;;;;;;;3371384;42;20564;-66
2022/10/07 13:49:36;;;;;;;12.65;5.82;;;;;;;;;;3374134;42;20087;-64
2022/10/07 13:52:21;;;;;;;11.73;5.40;;;;;;;;;;3381993;42;20101;-65
2022/10/07 13:54:52;;;;;;;13.25;5.32;;;;;;;;;;3375458;42;20099;-63
2022/10/07 13:57:23;;;;;;;13.93;5.80;;;;;;;;;;3382754;42;20091;-65
2022/10/07 13:59:54;;;;;;;12.87;6.17;;;;;;;;;;3375168;42;20213;-63
2022/10/07 14:02:25;;;;;;;13.02;6.57;;;;;;;;;;3382359;42;20096;-66
2022/10/07 14:05:01;;;;;;;11.40;5.70;;;;;;;;;;3375138;42;20134;-63
2022/10/07 14:07:32;;;;;;;11.73;6.30;;;;;;;;;;3386721;42;20087;-65
2022/10/07 14:10:08;;;;;;;13.02;6.05;;;;;;;;;;3374995;42;20512;-64
2022/10/07 14:12:44;;;;;;;13.37;6.80;;;;;;;;;;3375131;42;20647;-64
2022/10/07 14:15:16;;;;;;;12.15;6.47;;;;;;;;;;3374857;42;20110;-67
2022/10/07 14:17:48;;;;;;;12.77;6.05;;;;;;;;;;3380450;42;20706;-68
2022/10/07 14:20:29;;;;;;;13.07;6.15;;;;;;;;;;3381874;42;20095;-62
2022/10/07 14:23:04;;;;;;;15.75;6.50;;;;;;;;;;3384077;42;20087;-63
2022/10/07 14:25:47;;;;;;;12.50;6.30;;;;;;;;;;3374499;42;20200;-64
2022/10/07 14:28:22;;;;;;;12.98;6.00;;;;;;;;;;3381604;42;20126;-62
2022/10/07 14:37:10;;;;;;;12.40;6.20;;;;;;;;;;3382477;42;20090;-65
2022/10/07 14:39:42;;;;;;;13.40;6.27;;;;;;;;;;3383871;42;20121;-62
2022/10/07 14:42:14;;;;;;;12.75;6.45;;;;;;;;;;3384172;42;20079;-63
2022/10/07 14:44:46;;;;;;;15.75;7.35;;;;;;;;;;3376619;42;20091;-63
2022/10/07 14:47:23;;;;;;;13.98;6.25;;;;;;;;;;3383539;42;20631;-63
2022/10/07 14:49:55;;;;;;;12.73;5.95;;;;;;;;;;3376954;42;20087;-64
2022/10/07 14:52:33;;;;;;;17.07;6.27;;;;;;;;;;3384065;42;20121;-65
2022/10/07 14:55:10;;;;;;;12.68;6.03;;;;;;;;;;3381845;42;20099;-66
2022/10/07 14:57:42;;;;;;;14.18;6.03;;;;;;;;;;3376486;42;20087;-64
2022/10/07 15:00:19;;;;;;;12.75;6.40;;;;;;;;;;3383638;42;20189;-63
2022/10/07 15:02:51;;;;;;;13.95;6.57;;;;;;;;;;3376644;42;20159;-64
2022/10/07 15:05:23;;;;;;;13.87;6.10;;;;;;;;;;3383810;42;20140;-65
2022/10/07 15:07:54;;;;;;;11.95;5.95;;;;;;;;;;3376370;42;20082;-64
2022/10/07 15:10:25;;;;;;;12.73;6.10;;;;;;;;;;3381887;42;20118;-65
2022/10/07 15:12:58;;;;;;;11.85;5.95;;;;;;;;;;3383926;42;20095;-67
2022/10/07 15:15:29;;;;;;;11.05;5.50;;;;;;;;;;3383762;42;20091;-64
2022/10/07 15:18:00;;;;;;;12.10;5.50;;;;;;;;;;3383428;42;20587;-65
2022/10/07 15:20:32;;;;;;;13.73;6.15;;;;;;;;;;3383344;42;20105;-64
2022/10/07 15:23:04;;;;;;;12.82;6.45;;;;;;;;;;3383188;42;20101;-62
2022/10/07 15:25:35;;;;;;;12.52;6.03;;;;;;;;;;3375917;42;20120;-63
2022/10/07 15:28:06;;;;;;;12.77;5.97;;;;;;;;;;3375657;42;20166;-65
2022/10/07 15:30:37;;;;;;;12.07;5.87;;;;;;;;;;3382874;42;20123;-64
2022/10/07 15:33:11;;;;;;;12.93;5.95;;;;;;;;;;3381290;42;20091;-66
2022/10/07 15:35:42;;;;;;;12.30;6.15;;;;;;;;;;3383264;42;20094;-65
2022/10/07 15:38:13;;;;;;;14.05;6.45;;;;;;;;;;3383034;42;20161;-64
2022/10/07 15:40:55;;;;;;;12.93;6.03;;;;;;;;;;3382852;42;20508;-65
2022/10/07 15:43:27;;;;;;;14.17;5.90;;;;;;;;;;3376210;42;20137;-63
2022/10/07 15:46:00;;;;;;;12.82;5.95;;;;;;;;;;3383159;42;20145;-65